Neptune Pioneer — 3EKH6 — position and weather

sailwx.info

Track history (hours):
 
Tides and Currents Weather Stations Pressure Air Temp Water Temp Dewpoint Dewpoint Depression Visibility Wind Speed Wind Dir Waves Ship Positions

Neptune Pioneer

Last reported at 2016-May-04 15:33 UTC. Time now 2016-Jun-29 03:51 UTC.
Position S 29°40' E 031°37'.
Warning: this ship's position is 55 days out of date.

Length 190 m; draft 13 m.

Type: Cargo ship. MMSI: 372723000.

Date/timePositionNaut miles runAvg speedWind from/ knotsBaromVisibWave heightAir tempDewpointWater temp
2016-May-04 15:33S 29°40' E 031°37'9 9.4
2016-May-04 14:33S 29°43' E 031°27'10 9.9
2016-May-04 13:33S 29°47' E 031°16'1010.3
2016-May-04 12:33S 29°50' E 031°05'3 2.9
2016-May-04 11:31S 29°52' E 031°02'0 0.0
2016-May-04 10:31S 29°52' E 031°02'0 0.0
2016-May-04 09:31S 29°52' E 031°02'0 0.0
2016-May-04 08:31S 29°52' E 031°02'0 0.0
2016-May-04 07:31S 29°52' E 031°02'0 0.0
2016-May-04 06:31S 29°52' E 031°02'0 0.3
2016-May-04 05:33S 29°53' E 031°03'6 6.1
2016-May-04 04:33S 29°49' E 031°08'5 4.8
2016-May-04 03:33S 29°48' E 031°13'1 1.4
2016-May-04 02:33S 29°47' E 031°14'19 9.4
2016-May-04 00:33S 29°32' E 031°28'9 9.4
2016-May-03 23:33S 29°26' E 031°36'  
Track history (hours):
 
Tides and Currents Weather Stations Pressure Air Temp Water Temp Dewpoint Dewpoint Depression Visibility Wind Speed Wind Dir Waves Ship Positions

Neptune Pioneer

Last reported at 2016-May-04 15:33 UTC. Time now 2016-Jun-29 03:51 UTC.
Position S 29°40' E 031°37'.
Warning: this ship's position is 55 days out of date.

Length 190 m; draft 13 m.

Type: Cargo ship. MMSI: 372723000.

Date/timePositionNaut miles runAvg speedWind from/ knotsBaromVisibWave heightAir tempDewpointWater temp
2016-May-04 15:33S 29°40' E 031°37'9 9.4
2016-May-04 14:33S 29°43' E 031°27'10 9.9
2016-May-04 13:33S 29°47' E 031°16'1010.3
2016-May-04 12:33S 29°50' E 031°05'3 2.9
2016-May-04 11:31S 29°52' E 031°02'0 0.0
2016-May-04 10:31S 29°52' E 031°02'0 0.0
2016-May-04 09:31S 29°52' E 031°02'0 0.0
2016-May-04 08:31S 29°52' E 031°02'0 0.0
2016-May-04 07:31S 29°52' E 031°02'0 0.0
2016-May-04 06:31S 29°52' E 031°02'0 0.3
2016-May-04 05:33S 29°53' E 031°03'6 6.1
2016-May-04 04:33S 29°49' E 031°08'5 4.8
2016-May-04 03:33S 29°48' E 031°13'1 1.4
2016-May-04 02:33S 29°47' E 031°14'19 9.4
2016-May-04 00:33S 29°32' E 031°28'9 9.4
2016-May-03 23:33S 29°26' E 031°36'  

Dump ship's entire track history